sensor_id;sensor_type;location;lat;lon;timestamp;pressure;altitude;pressure_sealevel;temperature;humidity
74529;BME280;63009;52.584;5.932;2023-04-15T00:02:18;100995.22;;;6.10;86.80
74529;BME280;63009;52.584;5.932;2023-04-15T00:04:45;100956.81;;;5.84;86.75
74529;BME280;63009;52.584;5.932;2023-04-15T00:07:10;100993.72;;;6.03;86.63
74529;BME280;63009;52.584;5.932;2023-04-15T00:09:36;100990.25;;;6.02;87.10
74529;BME280;63009;52.584;5.932;2023-04-15T00:12:01;100996.59;;;5.97;87.12
74529;BME280;63009;52.584;5.932;2023-04-15T00:14:26;100999.38;;;5.92;87.79
74529;BME280;63009;52.584;5.932;2023-04-15T00:16:52;100976.44;;;5.72;88.05
74529;BME280;63009;52.584;5.932;2023-04-15T00:19:20;100997.56;;;5.94;88.80
74529;BME280;63009;52.584;5.932;2023-04-15T00:21:45;100997.78;;;5.86;87.88
74529;BME280;63009;52.584;5.932;2023-04-15T00:24:11;101003.88;;;5.87;87.87
74529;BME280;63009;52.584;5.932;2023-04-15T00:26:37;100971.53;;;5.63;88.15
74529;BME280;63009;52.584;5.932;2023-04-15T00:29:02;101017.00;;;5.87;87.96
74529;BME280;63009;52.584;5.932;2023-04-15T00:31:29;101016.22;;;5.85;88.29
74529;BME280;63009;52.584;5.932;2023-04-15T00:33:54;100981.75;;;5.71;87.90
74529;BME280;63009;52.584;5.932;2023-04-15T00:36:20;101009.19;;;5.85;87.92
74529;BME280;63009;52.584;5.932;2023-04-15T00:38:45;100981.16;;;5.62;88.63
74529;BME280;63009;52.584;5.932;2023-04-15T00:41:10;100997.44;;;5.72;88.80
74529;BME280;63009;52.584;5.932;2023-04-15T00:43:36;101000.06;;;5.72;89.13
74529;BME280;63009;52.584;5.932;2023-04-15T00:46:03;101011.25;;;5.77;89.00
74529;BME280;63009;52.584;5.932;2023-04-15T00:48:30;101007.00;;;5.73;89.32
74529;BME280;63009;52.584;5.932;2023-04-15T00:50:56;100991.75;;;5.59;90.22
74529;BME280;63009;52.584;5.932;2023-04-15T00:53:22;101012.75;;;5.59;90.92
74529;BME280;63009;52.584;5.932;2023-04-15T00:55:48;100981.44;;;5.30;91.18
74529;BME280;63009;52.584;5.932;2023-04-15T00:58:13;101006.22;;;5.46;91.70
74529;BME280;63009;52.584;5.932;2023-04-15T01:00:39;101016.06;;;5.40;92.20
74529;BME280;63009;52.584;5.932;2023-04-15T01:03:05;101016.00;;;5.41;91.97
74529;BME280;63009;52.584;5.932;2023-04-15T01:05:31;101013.34;;;5.43;92.50
74529;BME280;63009;52.584;5.932;2023-04-15T01:07:56;100996.00;;;5.39;92.11
74529;BME280;63009;52.584;5.932;2023-04-15T01:10:21;101012.38;;;5.45;92.48
74529;BME280;63009;52.584;5.932;2023-04-15T01:12:47;101001.44;;;5.32;92.95
74529;BME280;63009;52.584;5.932;2023-04-15T01:15:12;101008.19;;;5.40;93.07
74529;BME280;63009;52.584;5.932;2023-04-15T01:17:38;101017.81;;;5.39;92.85
74529;BME280;63009;52.584;5.932;2023-04-15T01:20:04;101010.88;;;5.38;93.39
74529;BME280;63009;52.584;5.932;2023-04-15T01:22:32;100999.53;;;5.38;93.41
74529;BME280;63009;52.584;5.932;2023-04-15T01:25:06;101019.53;;;5.40;93.73
74529;BME280;63009;52.584;5.932;2023-04-15T01:27:34;101020.44;;;5.39;93.28
74529;BME280;63009;52.584;5.932;2023-04-15T01:30:00;101023.13;;;5.38;93.78
74529;BME280;63009;52.584;5.932;2023-04-15T01:32:26;101023.19;;;5.34;94.01
74529;BME280;63009;52.584;5.932;2023-04-15T01:34:52;101020.75;;;5.30;94.28
74529;BME280;63009;52.584;5.932;2023-04-15T01:37:17;101020.06;;;5.25;94.58
74529;BME280;63009;52.584;5.932;2023-04-15T01:39:42;101018.47;;;5.21;94.57
74529;BME280;63009;52.584;5.932;2023-04-15T01:42:08;101008.09;;;5.16;95.60
74529;BME280;63009;52.584;5.932;2023-04-15T01:44:34;101020.97;;;5.24;94.77
74529;BME280;63009;52.584;5.932;2023-04-15T01:46:59;101015.72;;;5.24;95.82
74529;BME280;63009;52.584;5.932;2023-04-15T01:49:24;101024.44;;;5.24;95.67
74529;BME280;63009;52.584;5.932;2023-04-15T01:51:50;101010.53;;;5.22;95.00
74529;BME280;63009;52.584;5.932;2023-04-15T01:54:15;101025.31;;;5.25;95.25
74529;BME280;63009;52.584;5.932;2023-04-15T01:56:40;101025.44;;;5.20;95.19
74529;BME280;63009;52.584;5.932;2023-04-15T01:59:06;101029.75;;;5.23;95.86
74529;BME280;63009;52.584;5.932;2023-04-15T02:01:31;101025.53;;;5.17;95.72
74529;BME280;63009;52.584;5.932;2023-04-15T02:03:57;101032.59;;;5.15;96.09
74529;BME280;63009;52.584;5.932;2023-04-15T02:06:22;101028.50;;;5.06;96.59
74529;BME280;63009;52.584;5.932;2023-04-15T02:08:48;101041.47;;;5.11;96.24
74529;BME280;63009;52.584;5.932;2023-04-15T02:11:13;101040.75;;;5.06;95.85
74529;BME280;63009;52.584;5.932;2023-04-15T02:13:39;101028.97;;;4.93;96.23
74529;BME280;63009;52.584;5.932;2023-04-15T02:16:15;101013.88;;;4.73;96.25
74529;BME280;63009;52.584;5.932;2023-04-15T02:18:42;101039.09;;;4.75;96.35
74529;BME280;63009;52.584;5.932;2023-04-15T02:21:07;101050.44;;;4.76;96.65
74529;BME280;63009;52.584;5.932;2023-04-15T02:23:33;101038.56;;;4.64;96.83
74529;BME280;63009;52.584;5.932;2023-04-15T02:25:58;101046.69;;;4.57;97.19
74529;BME280;63009;52.584;5.932;2023-04-15T02:28:24;101051.06;;;4.56;97.70
74529;BME280;63009;52.584;5.932;2023-04-15T02:30:49;101064.31;;;4.50;97.88
74529;BME280;63009;52.584;5.932;2023-04-15T02:33:16;101057.38;;;4.49;98.33
74529;BME280;63009;52.584;5.932;2023-04-15T02:35:42;101062.78;;;4.43;98.76
74529;BME280;63009;52.584;5.932;2023-04-15T02:38:09;101041.06;;;4.41;98.62
74529;BME280;63009;52.584;5.932;2023-04-15T02:40:35;101047.28;;;4.37;98.82
74529;BME280;63009;52.584;5.932;2023-04-15T02:43:00;101054.22;;;4.38;98.97
74529;BME280;63009;52.584;5.932;2023-04-15T02:45:26;101073.44;;;4.37;98.91
74529;BME280;63009;52.584;5.932;2023-04-15T02:47:52;101070.91;;;4.34;99.39
74529;BME280;63009;52.584;5.932;2023-04-15T02:50:17;101056.25;;;4.28;99.79
74529;BME280;63009;52.584;5.932;2023-04-15T02:52:42;101070.00;;;4.35;100.00
74529;BME280;63009;52.584;5.932;2023-04-15T02:55:09;101061.44;;;4.30;100.00
74529;BME280;63009;52.584;5.932;2023-04-15T02:57:34;101083.63;;;4.46;99.98
74529;BME280;63009;52.584;5.932;2023-04-15T03:00:02;101078.50;;;4.43;99.15
74529;BME280;63009;52.584;5.932;2023-04-15T03:02:33;101056.50;;;4.19;98.83
74529;BME280;63009;52.584;5.932;2023-04-15T03:04:58;101076.47;;;4.22;100.00
74529;BME280;63009;52.584;5.932;2023-04-15T03:07:24;101086.94;;;4.22;100.00
74529;BME280;63009;52.584;5.932;2023-04-15T03:09:49;101076.81;;;4.11;100.00
74529;BME280;63009;52.584;5.932;2023-04-15T03:12:15;101090.56;;;4.17;100.00
74529;BME280;63009;52.584;5.932;2023-04-15T03:14:40;101069.88;;;4.10;100.00
74529;BME280;63009;52.584;5.932;2023-04-15T03:17:05;101087.97;;;4.16;99.95
74529;BME280;63009;52.584;5.932;2023-04-15T03:19:31;101096.81;;;4.12;99.67
74529;BME280;63009;52.584;5.932;2023-04-15T03:21:56;101093.56;;;4.04;100.00
74529;BME280;63009;52.584;5.932;2023-04-15T03:24:22;101091.78;;;4.04;100.00
74529;BME280;63009;52.584;5.932;2023-04-15T03:26:47;101067.09;;;3.83;100.00
74529;BME280;63009;52.584;5.932;2023-04-15T03:29:12;101074.09;;;3.83;100.00
74529;BME280;63009;52.584;5.932;2023-04-15T03:31:37;101103.38;;;3.96;100.00
74529;BME280;63009;52.584;5.932;2023-04-15T03:34:03;101101.56;;;3.98;100.00
74529;BME280;63009;52.584;5.932;2023-04-15T03:36:28;101119.16;;;3.91;100.00
74529;BME280;63009;52.584;5.932;2023-04-15T03:38:56;101110.72;;;3.81;100.00
74529;BME280;63009;52.584;5.932;2023-04-15T03:41:21;101107.38;;;3.76;100.00
74529;BME280;63009;52.584;5.932;2023-04-15T03:43:47;101119.50;;;3.79;100.00
74529;BME280;63009;52.584;5.932;2023-04-15T03:46:12;101113.31;;;3.83;100.00
74529;BME280;63009;52.584;5.932;2023-04-15T03:48:37;101123.81;;;3.81;100.00
74529;BME280;63009;52.584;5.932;2023-04-15T03:51:02;101121.19;;;3.81;100.00
74529;BME280;63009;52.584;5.932;2023-04-15T03:53:28;101112.50;;;3.79;100.00
74529;BME280;63009;52.584;5.932;2023-04-15T03:55:53;101128.09;;;3.84;100.00
74529;BME280;63009;52.584;5.932;2023-04-15T03:58:18;101121.25;;;3.78;100.00
74529;BME280;63009;52.584;5.932;2023-04-15T04:00:43;101101.50;;;3.68;100.00
74529;BME280;63009;52.584;5.932;2023-04-15T04:03:09;101133.06;;;3.93;100.00
74529;BME280;63009;52.584;5.932;2023-04-15T04:05:34;101112.53;;;3.78;100.00
74529;BME280;63009;52.584;5.932;2023-04-15T04:08:03;101135.06;;;3.83;100.00
74529;BME280;63009;52.584;5.932;2023-04-15T04:10:28;101142.09;;;3.81;100.00
74529;BME280;63009;52.584;5.932;2023-04-15T04:12:53;101127.53;;;3.71;100.00
74529;BME280;63009;52.584;5.932;2023-04-15T04:15:18;101148.22;;;3.80;100.00
74529;BME280;63009;52.584;5.932;2023-04-15T04:17:44;101126.81;;;3.66;100.00
74529;BME280;63009;52.584;5.932;2023-04-15T04:20:09;101136.06;;;3.78;100.00
74529;BME280;63009;52.584;5.932;2023-04-15T04:22:39;101137.78;;;3.79;100.00
74529;BME280;63009;52.584;5.932;2023-04-15T04:25:05;101137.88;;;3.76;100.00
74529;BME280;63009;52.584;5.932;2023-04-15T04:27:31;101138.59;;;3.82;100.00
74529;BME280;63009;52.584;5.932;2023-04-15T04:29:56;101133.47;;;3.78;100.00
74529;BME280;63009;52.584;5.932;2023-04-15T04:32:21;101150.00;;;3.78;100.00
74529;BME280;63009;52.584;5.932;2023-04-15T04:34:47;101158.69;;;3.79;100.00
74529;BME280;63009;52.584;5.932;2023-04-15T04:37:12;101139.03;;;3.64;100.00
74529;BME280;63009;52.584;5.932;2023-04-15T04:39:37;101157.84;;;3.78;100.00
74529;BME280;63009;52.584;5.932;2023-04-15T04:42:03;101153.47;;;3.79;100.00
74529;BME280;63009;52.584;5.932;2023-04-15T04:44:28;101156.22;;;3.74;100.00
74529;BME280;63009;52.584;5.932;2023-04-15T04:46:53;101165.72;;;3.77;100.00
74529;BME280;63009;52.584;5.932;2023-04-15T04:49:19;101170.06;;;3.78;100.00
74529;BME280;63009;52.584;5.932;2023-04-15T04:51:44;101158.19;;;3.66;100.00
74529;BME280;63009;52.584;5.932;2023-04-15T04:54:11;101172.75;;;3.75;100.00
74529;BME280;63009;52.584;5.932;2023-04-15T04:56:36;101175.41;;;3.73;100.00
74529;BME280;63009;52.584;5.932;2023-04-15T04:59:03;101170.25;;;3.70;100.00
74529;BME280;63009;52.584;5.932;2023-04-15T05:01:28;101168.53;;;3.69;100.00
74529;BME280;63009;52.584;5.932;2023-04-15T05:03:54;101165.34;;;3.58;100.00
74529;BME280;63009;52.584;5.932;2023-04-15T05:06:20;101192.97;;;3.68;100.00
74529;BME280;63009;52.584;5.932;2023-04-15T05:08:45;101174.94;;;3.57;100.00
74529;BME280;63009;52.584;5.932;2023-04-15T05:11:11;101204.19;;;3.72;100.00
74529;BME280;63009;52.584;5.932;2023-04-15T05:13:37;101200.72;;;3.71;100.00
74529;BME280;63009;52.584;5.932;2023-04-15T05:16:04;101202.41;;;3.74;100.00
74529;BME280;63009;52.584;5.932;2023-04-15T05:18:29;101215.22;;;3.84;100.00
74529;BME280;63009;52.584;5.932;2023-04-15T05:20:54;101197.78;;;3.85;100.00
74529;BME280;63009;52.584;5.932;2023-04-15T05:23:20;101181.22;;;3.84;100.00
74529;BME280;63009;52.584;5.932;2023-04-15T05:25:45;101218.84;;;4.13;100.00
74529;BME280;63009;52.584;5.932;2023-04-15T05:28:10;101222.03;;;4.26;100.00
74529;BME280;63009;52.584;5.932;2023-04-15T05:30:36;101202.53;;;4.37;100.00
74529;BME280;63009;52.584;5.932;2023-04-15T05:33:02;101209.16;;;4.51;100.00
74529;BME280;63009;52.584;5.932;2023-04-15T05:35:28;101192.34;;;4.58;100.00
74529;BME280;63009;52.584;5.932;2023-04-15T05:37:53;101217.97;;;4.77;100.00
74529;BME280;63009;52.584;5.932;2023-04-15T05:40:18;101224.59;;;4.89;100.00
74529;BME280;63009;52.584;5.932;2023-04-15T05:42:44;101227.72;;;5.02;100.00
74529;BME280;63009;52.584;5.932;2023-04-15T05:45:10;101229.34;;;5.06;100.00
74529;BME280;63009;52.584;5.932;2023-04-15T05:47:35;101230.03;;;5.13;100.00
74529;BME280;63009;52.584;5.932;2023-04-15T05:50:01;101215.09;;;5.16;100.00
74529;BME280;63009;52.584;5.932;2023-04-15T05:52:27;101212.00;;;5.31;100.00
74529;BME280;63009;52.584;5.932;2023-04-15T05:54:52;101220.44;;;5.41;100.00
74529;BME280;63009;52.584;5.932;2023-04-15T05:57:18;101245.97;;;5.62;100.00
74529;BME280;63009;52.584;5.932;2023-04-15T05:59:43;101221.41;;;5.66;100.00
74529;BME280;63009;52.584;5.932;2023-04-15T06:02:09;101243.59;;;5.83;100.00
74529;BME280;63009;52.584;5.932;2023-04-15T06:04:34;101241.47;;;5.95;100.00
74529;BME280;63009;52.584;5.932;2023-04-15T06:07:01;101242.00;;;6.05;100.00
74529;BME280;63009;52.584;5.932;2023-04-15T06:09:26;101242.03;;;6.30;100.00
74529;BME280;63009;52.584;5.932;2023-04-15T06:11:52;101245.81;;;6.48;100.00
74529;BME280;63009;52.584;5.932;2023-04-15T06:14:18;101269.34;;;6.76;100.00
74529;BME280;63009;52.584;5.932;2023-04-15T06:16:43;101244.38;;;6.88;100.00
74529;BME280;63009;52.584;5.932;2023-04-15T06:19:08;101271.00;;;7.25;98.49
74529;BME280;63009;52.584;5.932;2023-04-15T06:21:34;101255.09;;;7.28;97.23
74529;BME280;63009;52.584;5.932;2023-04-15T06:23:59;101270.94;;;7.50;95.89
74529;BME280;63009;52.584;5.932;2023-04-15T06:26:27;101291.38;;;7.65;96.07
74529;BME280;63009;52.584;5.932;2023-04-15T06:28:53;101287.69;;;7.69;95.14
74529;BME280;63009;52.584;5.932;2023-04-15T06:31:18;101282.94;;;7.79;95.07
74529;BME280;63009;52.584;5.932;2023-04-15T06:33:43;101261.16;;;7.76;94.79
74529;BME280;63009;52.584;5.932;2023-04-15T06:36:09;101264.97;;;7.90;92.85
74529;BME280;63009;52.584;5.932;2023-04-15T06:38:35;101303.31;;;8.18;91.72
74529;BME280;63009;52.584;5.932;2023-04-15T06:41:00;101307.53;;;8.22;90.75
74529;BME280;63009;52.584;5.932;2023-04-15T06:43:26;101286.41;;;8.01;91.14
74529;BME280;63009;52.584;5.932;2023-04-15T06:45:52;101298.78;;;7.99;91.48
74529;BME280;63009;52.584;5.932;2023-04-15T06:48:17;101298.25;;;7.91;91.74
74529;BME280;63009;52.584;5.932;2023-04-15T06:50:43;101300.25;;;7.85;92.24
74529;BME280;63009;52.584;5.932;2023-04-15T06:53:08;101332.59;;;7.88;93.49
74529;BME280;63009;52.584;5.932;2023-04-15T06:55:33;101324.78;;;7.85;94.07
74529;BME280;63009;52.584;5.932;2023-04-15T06:57:59;101340.72;;;8.04;91.08
74529;BME280;63009;52.584;5.932;2023-04-15T07:00:24;101342.59;;;8.00;90.68
74529;BME280;63009;52.584;5.932;2023-04-15T07:02:50;101317.69;;;7.87;90.44
74529;BME280;63009;52.584;5.932;2023-04-15T07:05:15;101323.88;;;7.86;92.24
74529;BME280;63009;52.584;5.932;2023-04-15T07:07:41;101346.53;;;7.90;91.28
74529;BME280;63009;52.584;5.932;2023-04-15T07:10:07;101346.53;;;7.90;90.87
74529;BME280;63009;52.584;5.932;2023-04-15T07:12:33;101324.91;;;7.82;92.26
74529;BME280;63009;52.584;5.932;2023-04-15T07:14:59;101294.31;;;7.80;92.04
74529;BME280;63009;52.584;5.932;2023-04-15T07:17:24;101335.28;;;8.09;92.41
74529;BME280;63009;52.584;5.932;2023-04-15T07:19:49;101357.22;;;8.29;91.82
74529;BME280;63009;52.584;5.932;2023-04-15T07:22:15;101369.84;;;8.45;91.07
74529;BME280;63009;52.584;5.932;2023-04-15T07:24:40;101367.53;;;8.57;91.56
74529;BME280;63009;52.584;5.932;2023-04-15T07:27:06;101359.75;;;8.54;91.37
74529;BME280;63009;52.584;5.932;2023-04-15T07:29:32;101358.53;;;8.63;90.23
74529;BME280;63009;52.584;5.932;2023-04-15T07:31:57;101339.16;;;8.64;89.17
74529;BME280;63009;52.584;5.932;2023-04-15T07:34:23;101375.59;;;8.95;89.72
74529;BME280;63009;52.584;5.932;2023-04-15T07:36:48;101350.16;;;8.94;89.62
74529;BME280;63009;52.584;5.932;2023-04-15T07:39:15;101373.53;;;9.22;84.82
74529;BME280;63009;52.584;5.932;2023-04-15T07:41:41;101361.97;;;9.45;86.50
74529;BME280;63009;52.584;5.932;2023-04-15T07:44:06;101363.47;;;9.50;85.38
74529;BME280;63009;52.584;5.932;2023-04-15T07:46:32;101358.50;;;9.43;84.86
74529;BME280;63009;52.584;5.932;2023-04-15T07:48:57;101328.63;;;9.23;85.82
74529;BME280;63009;52.584;5.932;2023-04-15T07:51:22;101355.16;;;9.39;84.03
74529;BME280;63009;52.584;5.932;2023-04-15T07:53:48;101376.31;;;9.58;83.37
74529;BME280;63009;52.584;5.932;2023-04-15T07:56:14;101362.31;;;9.56;83.70
74529;BME280;63009;52.584;5.932;2023-04-15T07:58:39;101386.28;;;9.70;82.82
74529;BME280;63009;52.584;5.932;2023-04-15T08:01:05;101399.28;;;9.75;83.73
74529;BME280;63009;52.584;5.932;2023-04-15T08:03:31;101395.56;;;9.60;83.06
74529;BME280;63009;52.584;5.932;2023-04-15T08:05:57;101387.03;;;9.74;83.66
74529;BME280;63009;52.584;5.932;2023-04-15T08:08:22;101411.41;;;9.79;82.41
74529;BME280;63009;52.584;5.932;2023-04-15T08:10:48;101393.44;;;9.87;83.81
74529;BME280;63009;52.584;5.932;2023-04-15T08:13:14;101406.97;;;9.98;82.81
74529;BME280;63009;52.584;5.932;2023-04-15T08:15:39;101408.13;;;10.11;83.90
74529;BME280;63009;52.584;5.932;2023-04-15T08:18:04;101418.72;;;10.30;83.47
74529;BME280;63009;52.584;5.932;2023-04-15T08:20:30;101408.19;;;10.48;80.34
74529;BME280;63009;52.584;5.932;2023-04-15T08:22:55;101410.06;;;10.63;80.88
74529;BME280;63009;52.584;5.932;2023-04-15T08:25:21;101408.84;;;10.70;78.36
74529;BME280;63009;52.584;5.932;2023-04-15T08:27:46;101411.41;;;10.72;80.28
74529;BME280;63009;52.584;5.932;2023-04-15T08:30:12;101414.13;;;10.70;78.55
74529;BME280;63009;52.584;5.932;2023-04-15T08:32:38;101411.69;;;10.65;77.73
74529;BME280;63009;52.584;5.932;2023-04-15T08:35:03;101397.09;;;10.76;79.29
74529;BME280;63009;52.584;5.932;2023-04-15T08:37:29;101412.47;;;10.67;77.75
74529;BME280;63009;52.584;5.932;2023-04-15T08:39:54;101415.78;;;10.90;78.53
74529;BME280;63009;52.584;5.932;2023-04-15T08:42:25;101427.28;;;10.89;77.64
74529;BME280;63009;52.584;5.932;2023-04-15T08:44:52;101410.56;;;10.71;77.75
74529;BME280;63009;52.584;5.932;2023-04-15T08:47:20;101431.72;;;10.88;77.45
74529;BME280;63009;52.584;5.932;2023-04-15T08:49:46;101414.25;;;10.67;77.96
74529;BME280;63009;52.584;5.932;2023-04-15T08:52:18;101434.91;;;10.78;78.46
74529;BME280;63009;52.584;5.932;2023-04-15T08:54:43;101418.41;;;10.73;77.76
74529;BME280;63009;52.584;5.932;2023-04-15T08:57:09;101412.28;;;10.72;77.44
74529;BME280;63009;52.584;5.932;2023-04-15T08:59:34;101440.06;;;10.98;77.96
74529;BME280;63009;52.584;5.932;2023-04-15T09:02:01;101449.84;;;11.13;78.08
74529;BME280;63009;52.584;5.932;2023-04-15T09:04:27;101445.94;;;11.20;76.00
74529;BME280;63009;52.584;5.932;2023-04-15T09:06:53;101435.75;;;11.30;76.59
74529;BME280;63009;52.584;5.932;2023-04-15T09:09:18;101441.78;;;11.49;77.90
74529;BME280;63009;52.584;5.932;2023-04-15T09:11:44;101445.97;;;11.71;75.33
74529;BME280;63009;52.584;5.932;2023-04-15T09:14:09;101441.88;;;11.81;75.23
74529;BME280;63009;52.584;5.932;2023-04-15T09:16:57;101470.47;;;12.07;72.81
74529;BME280;63009;52.584;5.932;2023-04-15T09:19:23;101462.44;;;12.09;72.27
74529;BME280;63009;52.584;5.932;2023-04-15T09:21:50;101473.03;;;11.76;72.48
74529;BME280;63009;52.584;5.932;2023-04-15T09:24:15;101462.25;;;11.96;75.09
74529;BME280;63009;52.584;5.932;2023-04-15T09:26:41;101472.72;;;12.15;72.54
74529;BME280;63009;52.584;5.932;2023-04-15T09:29:09;101468.25;;;11.84;72.40
74529;BME280;63009;52.584;5.932;2023-04-15T09:31:37;101478.97;;;11.81;73.52
74529;BME280;63009;52.584;5.932;2023-04-15T09:34:03;101473.09;;;11.58;75.57
74529;BME280;63009;52.584;5.932;2023-04-15T09:36:37;101471.22;;;11.60;75.80
74529;BME280;63009;52.584;5.932;2023-04-15T09:39:04;101467.94;;;11.38;74.24
74529;BME280;63009;52.584;5.932;2023-04-15T09:41:29;101484.84;;;11.53;76.07
74529;BME280;63009;52.584;5.932;2023-04-15T09:43:54;101493.63;;;11.53;74.30
74529;BME280;63009;52.584;5.932;2023-04-15T09:46:39;101477.53;;;11.58;75.13
74529;BME280;63009;52.584;5.932;2023-04-15T09:49:09;101485.00;;;11.50;74.83
74529;BME280;63009;52.584;5.932;2023-04-15T09:51:35;101506.09;;;11.69;75.11
74529;BME280;63009;52.584;5.932;2023-04-15T09:54:00;101503.88;;;11.77;74.05
74529;BME280;63009;52.584;5.932;2023-04-15T09:56:33;101495.63;;;11.66;72.92
74529;BME280;63009;52.584;5.932;2023-04-15T09:58:58;101522.41;;;11.94;72.86
74529;BME280;63009;52.584;5.932;2023-04-15T10:01:24;101505.16;;;11.70;72.27
74529;BME280;63009;52.584;5.932;2023-04-15T10:03:50;101507.94;;;11.67;71.50
74529;BME280;63009;52.584;5.932;2023-04-15T10:06:16;101501.03;;;11.47;73.01
74529;BME280;63009;52.584;5.932;2023-04-15T10:08:42;101511.72;;;11.45;73.04
74529;BME280;63009;52.584;5.932;2023-04-15T10:11:07;101523.78;;;11.51;72.34
74529;BME280;63009;52.584;5.932;2023-04-15T10:13:33;101520.03;;;11.38;73.15
74529;BME280;63009;52.584;5.932;2023-04-15T10:16:12;101523.06;;;11.47;74.27
74529;BME280;63009;52.584;5.932;2023-04-15T10:18:41;101533.06;;;11.42;73.26
74529;BME280;63009;52.584;5.932;2023-04-15T10:21:07;101523.78;;;11.51;73.43
74529;BME280;63009;52.584;5.932;2023-04-15T10:23:33;101499.88;;;11.35;72.82
74529;BME280;63009;52.584;5.932;2023-04-15T10:25:58;101536.94;;;11.70;72.43
74529;BME280;63009;52.584;5.932;2023-04-15T10:28:24;101536.97;;;11.68;73.17
74529;BME280;63009;52.584;5.932;2023-04-15T10:30:51;101535.69;;;11.42;72.51
74529;BME280;63009;52.584;5.932;2023-04-15T10:33:19;101539.75;;;11.32;73.36
74529;BME280;63009;52.584;5.932;2023-04-15T10:35:47;101531.78;;;11.32;73.56
74529;BME280;63009;52.584;5.932;2023-04-15T10:38:33;101530.50;;;11.41;73.26
74529;BME280;63009;52.584;5.932;2023-04-15T10:41:27;101526.25;;;11.71;72.39
74529;BME280;63009;52.584;5.932;2023-04-15T10:46:36;101520.22;;;12.02;71.50
74529;BME280;63009;52.584;5.932;2023-04-15T10:49:19;101500.63;;;11.89;73.32
74529;BME280;63009;52.584;5.932;2023-04-15T10:51:56;101533.97;;;12.26;72.44
74529;BME280;63009;52.584;5.932;2023-04-15T10:56:51;101539.16;;;12.28;71.52
74529;BME280;63009;52.584;5.932;2023-04-15T10:59:16;101527.25;;;12.19;70.60
74529;BME280;63009;52.584;5.932;2023-04-15T11:01:56;101549.78;;;12.10;72.32
74529;BME280;63009;52.584;5.932;2023-04-15T11:04:52;101545.19;;;11.98;73.56
74529;BME280;63009;52.584;5.932;2023-04-15T11:07:46;101544.56;;;11.58;72.77
74529;BME280;63009;52.584;5.932;2023-04-15T11:12:37;101529.75;;;11.72;73.85
74529;BME280;63009;52.584;5.932;2023-04-15T11:15:29;101541.63;;;12.15;71.28
74529;BME280;63009;52.584;5.932;2023-04-15T11:17:55;101551.59;;;12.43;68.75
74529;BME280;63009;52.584;5.932;2023-04-15T11:20:21;101541.25;;;12.54;68.77
74529;BME280;63009;52.584;5.932;2023-04-15T11:22:51;101551.84;;;12.70;70.35
74529;BME280;63009;52.584;5.932;2023-04-15T11:25:28;101545.91;;;12.33;68.35
74529;BME280;63009;52.584;5.932;2023-04-15T11:27:54;101544.41;;;12.45;69.56
74529;BME280;63009;52.584;5.932;2023-04-15T11:30:24;101548.44;;;12.68;70.45
74529;BME280;63009;52.584;5.932;2023-04-15T11:32:52;101554.34;;;12.24;70.00
74529;BME280;63009;52.584;5.932;2023-04-15T11:35:18;101535.56;;;12.13;69.07
74529;BME280;63009;52.584;5.932;2023-04-15T11:37:44;101497.81;;;12.08;68.83
74529;BME280;63009;52.584;5.932;2023-04-15T11:40:10;101521.47;;;11.95;68.02
74529;BME280;63009;52.584;5.932;2023-04-15T11:42:36;101494.94;;;12.12;70.27
74529;BME280;63009;52.584;5.932;2023-04-15T11:45:12;101515.63;;;12.22;69.39
74529;BME280;63009;52.584;5.932;2023-04-15T11:47:39;101541.44;;;12.18;71.12
74529;BME280;63009;52.584;5.932;2023-04-15T11:50:18;101558.16;;;12.52;70.64
74529;BME280;63009;52.584;5.932;2023-04-15T11:53:00;101584.66;;;12.52;70.40
74529;BME280;63009;52.584;5.932;2023-04-15T11:55:26;101545.59;;;12.06;69.73
74529;BME280;63009;52.584;5.932;2023-04-15T11:58:16;101593.38;;;12.05;70.70
74529;BME280;63009;52.584;5.932;2023-04-15T12:00:49;101596.84;;;12.23;69.58
74529;BME280;63009;52.584;5.932;2023-04-15T12:03:21;101557.72;;;11.60;72.08
74529;BME280;63009;52.584;5.932;2023-04-15T12:06:03;101581.28;;;11.83;71.08
74529;BME280;63009;52.584;5.932;2023-04-15T12:11:26;101614.19;;;11.78;71.87
74529;BME280;63009;52.584;5.932;2023-04-15T12:13:58;101597.13;;;11.49;73.92
74529;BME280;63009;52.584;5.932;2023-04-15T12:16:24;101615.91;;;11.79;72.66
74529;BME280;63009;52.584;5.932;2023-04-15T12:18:54;101607.34;;;11.91;71.88
74529;BME280;63009;52.584;5.932;2023-04-15T12:21:25;101620.94;;;11.66;71.50
74529;BME280;63009;52.584;5.932;2023-04-15T12:23:53;101628.59;;;11.55;72.48
74529;BME280;63009;52.584;5.932;2023-04-15T12:26:25;101619.22;;;11.12;75.33
74529;BME280;63009;52.584;5.932;2023-04-15T12:28:55;101626.38;;;11.28;74.64
74529;BME280;63009;52.584;5.932;2023-04-15T12:31:21;101642.00;;;11.33;74.90
74529;BME280;63009;52.584;5.932;2023-04-15T12:33:47;101639.06;;;11.39;73.86
74529;BME280;63009;52.584;5.932;2023-04-15T12:36:14;101640.78;;;11.40;76.03
74529;BME280;63009;52.584;5.932;2023-04-15T12:38:39;101627.22;;;11.29;74.65
74529;BME280;63009;52.584;5.932;2023-04-15T12:41:04;101650.84;;;11.15;76.39
74529;BME280;63009;52.584;5.932;2023-04-15T12:43:30;101650.47;;;11.22;77.17
74529;BME280;63009;52.584;5.932;2023-04-15T12:45:55;101643.84;;;10.95;76.16
74529;BME280;63009;52.584;5.932;2023-04-15T12:48:21;101645.25;;;10.64;77.14
74529;BME280;63009;52.584;5.932;2023-04-15T12:50:46;101667.06;;;10.69;77.62
74529;BME280;63009;52.584;5.932;2023-04-15T12:53:11;101653.75;;;10.52;78.53
74529;BME280;63009;52.584;5.932;2023-04-15T12:55:37;101661.75;;;10.69;78.20
74529;BME280;63009;52.584;5.932;2023-04-15T12:58:02;101639.50;;;10.56;78.78
74529;BME280;63009;52.584;5.932;2023-04-15T13:00:27;101667.78;;;10.73;78.49
74529;BME280;63009;52.584;5.932;2023-04-15T13:02:53;101672.00;;;10.77;78.96
74529;BME280;63009;52.584;5.932;2023-04-15T13:05:18;101659.13;;;10.69;78.75